PILOTS ONLINE: 716    ATC ONLINE: 188

KHYA

Barnstable Municipal Boardman Polando Field

Location

IATA HYA
City Hyannis
Country  United States
Latitude 41° 40' 9" N
Longitude 70° 16' 49" W
Elevation 54 ft
Type Medium Airport

Map

Weather

METAR
2014/10/25 20:56
KHYA 252056Z 23012KT 10SM CLR 16/09 A2960 RMK AO2 SLP024 T01610094 58016
TAF
2014/10/25 18:39
TAF KHYA 251735Z 2518/2618 23010KT P6SM SKC 
     FM260200 22013G23KT P6SM SCT250 
     FM260400 22014G24KT P6SM SCT050 
     FM260600 23015G26KT P6SM BKN045 
     FM260800 24015G25KT P6SM SCT060 
     FM261400 28016G24KT P6SM SCT250

Runways

06/24 5425 ft / 150 ft
15/33 5252 ft / 150 ft

Outbound flights

Callsign Flying to Pilot ATD/STD ETA Aircraft

Inbound flights

Callsign Flying from Pilot ATD ETA Aircraft